sensor_id;sensor_type;location;lat;lon;timestamp;P1;durP1;ratioP1;P2;durP2;ratioP2
30149;SDS011;16962;48.646;9.026;2022-11-14T00:01:34;52.00;;;29.35;;
30149;SDS011;16962;48.646;9.026;2022-11-14T00:04:21;55.80;;;29.60;;
30149;SDS011;16962;48.646;9.026;2022-11-14T00:07:14;51.17;;;29.63;;
30149;SDS011;16962;48.646;9.026;2022-11-14T00:10:02;54.10;;;29.85;;
30149;SDS011;16962;48.646;9.026;2022-11-14T00:12:50;57.08;;;29.25;;
30149;SDS011;16962;48.646;9.026;2022-11-14T00:15:37;57.10;;;29.83;;
30149;SDS011;16962;48.646;9.026;2022-11-14T00:18:24;52.65;;;29.73;;
30149;SDS011;16962;48.646;9.026;2022-11-14T00:21:12;61.28;;;31.05;;
30149;SDS011;16962;48.646;9.026;2022-11-14T00:23:59;51.90;;;28.00;;
30149;SDS011;16962;48.646;9.026;2022-11-14T00:26:52;50.28;;;27.50;;
30149;SDS011;16962;48.646;9.026;2022-11-14T00:29:40;54.55;;;28.70;;
30149;SDS011;16962;48.646;9.026;2022-11-14T00:32:27;49.05;;;26.85;;
30149;SDS011;16962;48.646;9.026;2022-11-14T00:35:16;45.75;;;25.40;;
30149;SDS011;16962;48.646;9.026;2022-11-14T00:38:06;47.15;;;26.17;;
30149;SDS011;16962;48.646;9.026;2022-11-14T00:40:53;53.92;;;28.13;;
30149;SDS011;16962;48.646;9.026;2022-11-14T00:43:40;51.25;;;27.38;;
30149;SDS011;16962;48.646;9.026;2022-11-14T00:46:29;50.63;;;27.13;;
30149;SDS011;16962;48.646;9.026;2022-11-14T00:49:16;54.92;;;29.00;;
30149;SDS011;16962;48.646;9.026;2022-11-14T00:52:03;56.03;;;31.00;;
30149;SDS011;16962;48.646;9.026;2022-11-14T00:54:51;59.83;;;30.23;;
30149;SDS011;16962;48.646;9.026;2022-11-14T00:57:41;61.55;;;31.73;;
30149;SDS011;16962;48.646;9.026;2022-11-14T01:00:28;58.30;;;29.98;;
30149;SDS011;16962;48.646;9.026;2022-11-14T01:03:15;67.95;;;33.22;;
30149;SDS011;16962;48.646;9.026;2022-11-14T01:06:04;67.93;;;32.60;;
30149;SDS011;16962;48.646;9.026;2022-11-14T01:08:53;59.78;;;29.42;;
30149;SDS011;16962;48.646;9.026;2022-11-14T01:11:40;64.45;;;33.15;;
30149;SDS011;16962;48.646;9.026;2022-11-14T01:14:27;73.55;;;33.15;;
30149;SDS011;16962;48.646;9.026;2022-11-14T01:17:14;63.13;;;31.95;;
30149;SDS011;16962;48.646;9.026;2022-11-14T01:20:02;71.15;;;33.78;;
30149;SDS011;16962;48.646;9.026;2022-11-14T01:22:50;77.45;;;36.08;;
30149;SDS011;16962;48.646;9.026;2022-11-14T01:25:37;74.13;;;33.88;;
30149;SDS011;16962;48.646;9.026;2022-11-14T01:28:25;73.45;;;34.22;;
30149;SDS011;16962;48.646;9.026;2022-11-14T01:31:17;90.45;;;36.08;;
30149;SDS011;16962;48.646;9.026;2022-11-14T01:34:06;86.95;;;35.53;;
30149;SDS011;16962;48.646;9.026;2022-11-14T01:36:54;85.13;;;34.63;;
30149;SDS011;16962;48.646;9.026;2022-11-14T01:39:44;78.68;;;35.65;;
30149;SDS011;16962;48.646;9.026;2022-11-14T01:42:31;117.70;;;35.55;;
30149;SDS011;16962;48.646;9.026;2022-11-14T01:48:57;89.93;;;36.30;;
30149;SDS011;16962;48.646;9.026;2022-11-14T01:51:50;86.45;;;36.08;;
30149;SDS011;16962;48.646;9.026;2022-11-14T01:54:54;85.57;;;36.10;;
30149;SDS011;16962;48.646;9.026;2022-11-14T01:57:47;91.43;;;36.78;;
30149;SDS011;16962;48.646;9.026;2022-11-14T02:00:35;99.03;;;37.72;;
30149;SDS011;16962;48.646;9.026;2022-11-14T02:03:23;92.70;;;36.83;;
30149;SDS011;16962;48.646;9.026;2022-11-14T02:06:13;92.72;;;37.40;;
30149;SDS011;16962;48.646;9.026;2022-11-14T02:09:03;100.45;;;38.92;;
30149;SDS011;16962;48.646;9.026;2022-11-14T02:11:53;100.32;;;36.97;;
30149;SDS011;16962;48.646;9.026;2022-11-14T02:14:42;102.05;;;36.35;;
30149;SDS011;16962;48.646;9.026;2022-11-14T02:17:33;101.63;;;37.45;;
30149;SDS011;16962;48.646;9.026;2022-11-14T02:20:21;102.13;;;37.58;;
30149;SDS011;16962;48.646;9.026;2022-11-14T02:23:23;98.18;;;37.95;;
30149;SDS011;16962;48.646;9.026;2022-11-14T02:26:15;97.50;;;40.28;;
30149;SDS011;16962;48.646;9.026;2022-11-14T02:29:04;101.82;;;39.17;;
30149;SDS011;16962;48.646;9.026;2022-11-14T02:31:52;171.73;;;41.03;;
30149;SDS011;16962;48.646;9.026;2022-11-14T02:34:40;167.90;;;44.58;;
30149;SDS011;16962;48.646;9.026;2022-11-14T02:37:29;574.80;;;59.13;;
30149;SDS011;16962;48.646;9.026;2022-11-14T02:40:16;161.25;;;38.83;;
30149;SDS011;16962;48.646;9.026;2022-11-14T02:43:03;116.65;;;37.53;;
30149;SDS011;16962;48.646;9.026;2022-11-14T02:45:51;84.88;;;35.20;;
30149;SDS011;16962;48.646;9.026;2022-11-14T02:48:38;102.88;;;36.33;;
30149;SDS011;16962;48.646;9.026;2022-11-14T02:51:25;114.95;;;37.42;;
30149;SDS011;16962;48.646;9.026;2022-11-14T02:54:13;105.68;;;35.75;;
30149;SDS011;16962;48.646;9.026;2022-11-14T02:57:02;122.32;;;37.25;;
30149;SDS011;16962;48.646;9.026;2022-11-14T02:59:51;136.75;;;39.15;;
30149;SDS011;16962;48.646;9.026;2022-11-14T03:02:38;488.25;;;54.90;;
30149;SDS011;16962;48.646;9.026;2022-11-14T03:05:26;210.60;;;42.35;;
30149;SDS011;16962;48.646;9.026;2022-11-14T03:08:16;333.42;;;45.70;;
30149;SDS011;16962;48.646;9.026;2022-11-14T03:11:07;419.30;;;45.28;;
30149;SDS011;16962;48.646;9.026;2022-11-14T03:13:55;778.25;;;72.05;;
30149;SDS011;16962;48.646;9.026;2022-11-14T03:16:45;181.32;;;37.10;;
30149;SDS011;16962;48.646;9.026;2022-11-14T03:19:32;159.85;;;39.15;;
30149;SDS011;16962;48.646;9.026;2022-11-14T03:22:19;205.27;;;39.83;;
30149;SDS011;16962;48.646;9.026;2022-11-14T03:25:06;155.13;;;39.33;;
30149;SDS011;16962;48.646;9.026;2022-11-14T03:27:55;213.40;;;40.85;;
30149;SDS011;16962;48.646;9.026;2022-11-14T03:30:42;264.88;;;40.97;;
30149;SDS011;16962;48.646;9.026;2022-11-14T03:33:29;374.17;;;47.65;;
30149;SDS011;16962;48.646;9.026;2022-11-14T03:36:17;409.63;;;50.58;;
30149;SDS011;16962;48.646;9.026;2022-11-14T03:39:05;175.35;;;40.30;;
30149;SDS011;16962;48.646;9.026;2022-11-14T03:41:52;147.18;;;39.05;;
30149;SDS011;16962;48.646;9.026;2022-11-14T03:44:39;214.50;;;43.58;;
30149;SDS011;16962;48.646;9.026;2022-11-14T03:47:29;150.05;;;39.45;;
30149;SDS011;16962;48.646;9.026;2022-11-14T03:50:16;196.10;;;43.17;;
30149;SDS011;16962;48.646;9.026;2022-11-14T03:53:03;335.27;;;49.15;;
30149;SDS011;16962;48.646;9.026;2022-11-14T03:55:51;125.15;;;39.63;;
30149;SDS011;16962;48.646;9.026;2022-11-14T03:58:38;141.52;;;39.20;;
30149;SDS011;16962;48.646;9.026;2022-11-14T04:01:25;354.58;;;51.30;;
30149;SDS011;16962;48.646;9.026;2022-11-14T04:04:15;296.50;;;45.80;;
30149;SDS011;16962;48.646;9.026;2022-11-14T04:07:02;131.20;;;36.65;;
30149;SDS011;16962;48.646;9.026;2022-11-14T04:09:52;347.08;;;45.10;;
30149;SDS011;16962;48.646;9.026;2022-11-14T04:12:48;139.38;;;37.17;;
30149;SDS011;16962;48.646;9.026;2022-11-14T04:15:37;138.05;;;35.17;;
30149;SDS011;16962;48.646;9.026;2022-11-14T04:18:24;292.08;;;41.83;;
30149;SDS011;16962;48.646;9.026;2022-11-14T04:21:12;332.65;;;43.63;;
30149;SDS011;16962;48.646;9.026;2022-11-14T04:23:59;427.05;;;43.50;;
30149;SDS011;16962;48.646;9.026;2022-11-14T04:26:53;109.15;;;31.15;;
30149;SDS011;16962;48.646;9.026;2022-11-14T04:29:41;480.02;;;45.05;;
30149;SDS011;16962;48.646;9.026;2022-11-14T04:32:28;164.65;;;35.33;;
30149;SDS011;16962;48.646;9.026;2022-11-14T04:35:15;273.98;;;39.25;;
30149;SDS011;16962;48.646;9.026;2022-11-14T04:38:05;240.57;;;37.40;;
30149;SDS011;16962;48.646;9.026;2022-11-14T04:40:52;235.43;;;36.70;;
30149;SDS011;16962;48.646;9.026;2022-11-14T04:43:42;260.23;;;38.85;;
30149;SDS011;16962;48.646;9.026;2022-11-14T04:46:36;286.50;;;37.78;;
30149;SDS011;16962;48.646;9.026;2022-11-14T04:49:23;151.15;;;34.45;;
30149;SDS011;16962;48.646;9.026;2022-11-14T04:52:11;111.60;;;35.80;;
30149;SDS011;16962;48.646;9.026;2022-11-14T04:54:58;200.13;;;37.33;;
30149;SDS011;16962;48.646;9.026;2022-11-14T04:57:45;311.95;;;41.00;;
30149;SDS011;16962;48.646;9.026;2022-11-14T05:00:32;132.25;;;36.45;;
30149;SDS011;16962;48.646;9.026;2022-11-14T05:03:22;127.78;;;34.10;;
30149;SDS011;16962;48.646;9.026;2022-11-14T05:06:10;105.47;;;35.03;;
30149;SDS011;16962;48.646;9.026;2022-11-14T05:09:00;118.32;;;34.83;;
30149;SDS011;16962;48.646;9.026;2022-11-14T05:11:47;102.15;;;32.97;;
30149;SDS011;16962;48.646;9.026;2022-11-14T05:14:36;89.85;;;32.45;;
30149;SDS011;16962;48.646;9.026;2022-11-14T05:17:26;98.60;;;31.70;;
30149;SDS011;16962;48.646;9.026;2022-11-14T05:20:15;103.25;;;31.00;;
30149;SDS011;16962;48.646;9.026;2022-11-14T05:23:05;70.43;;;27.75;;
30149;SDS011;16962;48.646;9.026;2022-11-14T05:26:03;76.53;;;28.23;;
30149;SDS011;16962;48.646;9.026;2022-11-14T05:28:58;74.45;;;29.30;;
30149;SDS011;16962;48.646;9.026;2022-11-14T05:31:45;78.95;;;30.45;;
30149;SDS011;16962;48.646;9.026;2022-11-14T05:34:32;101.28;;;33.92;;
30149;SDS011;16962;48.646;9.026;2022-11-14T05:37:22;95.18;;;32.15;;
30149;SDS011;16962;48.646;9.026;2022-11-14T05:40:09;80.38;;;31.33;;
30149;SDS011;16962;48.646;9.026;2022-11-14T05:42:57;85.00;;;31.92;;
30149;SDS011;16962;48.646;9.026;2022-11-14T05:45:44;126.50;;;34.30;;
30149;SDS011;16962;48.646;9.026;2022-11-14T05:48:31;97.72;;;33.28;;
30149;SDS011;16962;48.646;9.026;2022-11-14T05:51:21;89.15;;;31.60;;
30149;SDS011;16962;48.646;9.026;2022-11-14T05:54:10;81.18;;;30.92;;
30149;SDS011;16962;48.646;9.026;2022-11-14T05:56:57;81.72;;;32.20;;
30149;SDS011;16962;48.646;9.026;2022-11-14T05:59:47;88.97;;;34.22;;
30149;SDS011;16962;48.646;9.026;2022-11-14T06:02:34;88.18;;;34.03;;
30149;SDS011;16962;48.646;9.026;2022-11-14T06:05:21;95.13;;;32.45;;
30149;SDS011;16962;48.646;9.026;2022-11-14T06:08:11;93.85;;;33.05;;
30149;SDS011;16962;48.646;9.026;2022-11-14T06:11:09;110.07;;;34.65;;
30149;SDS011;16962;48.646;9.026;2022-11-14T06:13:58;90.15;;;32.10;;
30149;SDS011;16962;48.646;9.026;2022-11-14T06:16:48;77.68;;;31.50;;
30149;SDS011;16962;48.646;9.026;2022-11-14T06:19:35;84.65;;;31.65;;
30149;SDS011;16962;48.646;9.026;2022-11-14T06:22:25;77.88;;;32.47;;
30149;SDS011;16962;48.646;9.026;2022-11-14T06:25:12;81.35;;;31.50;;
30149;SDS011;16962;48.646;9.026;2022-11-14T06:28:00;71.78;;;30.95;;
30149;SDS011;16962;48.646;9.026;2022-11-14T06:30:47;88.40;;;33.60;;
30149;SDS011;16962;48.646;9.026;2022-11-14T06:33:37;79.65;;;32.22;;
30149;SDS011;16962;48.646;9.026;2022-11-14T06:36:24;86.18;;;33.42;;
30149;SDS011;16962;48.646;9.026;2022-11-14T06:39:12;81.78;;;33.17;;
30149;SDS011;16962;48.646;9.026;2022-11-14T06:41:59;84.38;;;34.35;;
30149;SDS011;16962;48.646;9.026;2022-11-14T06:44:46;84.05;;;35.05;;
30149;SDS011;16962;48.646;9.026;2022-11-14T06:47:33;81.10;;;34.60;;
30149;SDS011;16962;48.646;9.026;2022-11-14T06:50:20;83.90;;;36.22;;
30149;SDS011;16962;48.646;9.026;2022-11-14T06:53:07;91.85;;;36.63;;
30149;SDS011;16962;48.646;9.026;2022-11-14T06:58:45;84.78;;;36.50;;
30149;SDS011;16962;48.646;9.026;2022-11-14T07:01:36;83.85;;;37.20;;
30149;SDS011;16962;48.646;9.026;2022-11-14T07:04:23;86.43;;;38.58;;
30149;SDS011;16962;48.646;9.026;2022-11-14T07:07:10;84.25;;;37.03;;
30149;SDS011;16962;48.646;9.026;2022-11-14T07:09:58;78.82;;;36.65;;
30149;SDS011;16962;48.646;9.026;2022-11-14T07:12:45;84.57;;;37.75;;
30149;SDS011;16962;48.646;9.026;2022-11-14T07:15:35;80.90;;;34.88;;
30149;SDS011;16962;48.646;9.026;2022-11-14T07:18:25;77.50;;;36.05;;
30149;SDS011;16962;48.646;9.026;2022-11-14T07:21:12;73.00;;;35.60;;
30149;SDS011;16962;48.646;9.026;2022-11-14T07:24:04;58.47;;;27.48;;
30149;SDS011;16962;48.646;9.026;2022-11-14T07:26:52;68.30;;;32.25;;
30149;SDS011;16962;48.646;9.026;2022-11-14T07:29:41;68.32;;;36.28;;
30149;SDS011;16962;48.646;9.026;2022-11-14T07:32:30;66.82;;;34.35;;
30149;SDS011;16962;48.646;9.026;2022-11-14T07:36:04;68.60;;;32.63;;
30149;SDS011;16962;48.646;9.026;2022-11-14T07:39:11;57.85;;;30.35;;
30149;SDS011;16962;48.646;9.026;2022-11-14T07:42:10;62.97;;;30.50;;
30149;SDS011;16962;48.646;9.026;2022-11-14T07:49:49;46.28;;;24.60;;
30149;SDS011;16962;48.646;9.026;2022-11-14T07:52:55;40.08;;;22.48;;
30149;SDS011;16962;48.646;9.026;2022-11-14T07:55:43;34.70;;;18.95;;
30149;SDS011;16962;48.646;9.026;2022-11-14T07:58:30;24.42;;;15.80;;
30149;SDS011;16962;48.646;9.026;2022-11-14T08:01:20;14.38;;;9.48;;
30149;SDS011;16962;48.646;9.026;2022-11-14T08:04:13;13.07;;;8.13;;
30149;SDS011;16962;48.646;9.026;2022-11-14T08:07:00;11.88;;;7.60;;
30149;SDS011;16962;48.646;9.026;2022-11-14T08:09:47;13.02;;;7.38;;
30149;SDS011;16962;48.646;9.026;2022-11-14T08:12:36;11.63;;;5.85;;
30149;SDS011;16962;48.646;9.026;2022-11-14T08:15:27;8.55;;;4.53;;
30149;SDS011;16962;48.646;9.026;2022-11-14T08:18:17;6.88;;;4.72;;
30149;SDS011;16962;48.646;9.026;2022-11-14T08:21:05;6.35;;;3.88;;
30149;SDS011;16962;48.646;9.026;2022-11-14T08:23:52;4.60;;;3.40;;
30149;SDS011;16962;48.646;9.026;2022-11-14T08:26:40;6.82;;;3.13;;
30149;SDS011;16962;48.646;9.026;2022-11-14T08:29:28;10.63;;;3.20;;
30149;SDS011;16962;48.646;9.026;2022-11-14T08:32:20;3.73;;;2.30;;
30149;SDS011;16962;48.646;9.026;2022-11-14T08:35:21;3.42;;;2.90;;
30149;SDS011;16962;48.646;9.026;2022-11-14T08:38:16;2.90;;;2.53;;
30149;SDS011;16962;48.646;9.026;2022-11-14T08:41:05;3.60;;;2.45;;
30149;SDS011;16962;48.646;9.026;2022-11-14T08:43:52;5.22;;;2.65;;
30149;SDS011;16962;48.646;9.026;2022-11-14T08:46:39;3.47;;;2.67;;
30149;SDS011;16962;48.646;9.026;2022-11-14T08:49:29;5.72;;;2.70;;
30149;SDS011;16962;48.646;9.026;2022-11-14T08:52:17;3.53;;;2.78;;
30149;SDS011;16962;48.646;9.026;2022-11-14T08:55:04;3.40;;;2.40;;
30149;SDS011;16962;48.646;9.026;2022-11-14T08:57:52;3.75;;;2.78;;
30149;SDS011;16962;48.646;9.026;2022-11-14T09:00:39;3.42;;;2.72;;
30149;SDS011;16962;48.646;9.026;2022-11-14T09:03:31;5.68;;;3.40;;
30149;SDS011;16962;48.646;9.026;2022-11-14T09:06:21;9.35;;;3.63;;
30149;SDS011;16962;48.646;9.026;2022-11-14T09:09:08;7.65;;;3.03;;
30149;SDS011;16962;48.646;9.026;2022-11-14T09:11:55;5.55;;;3.47;;
30149;SDS011;16962;48.646;9.026;2022-11-14T09:14:44;5.32;;;3.40;;
30149;SDS011;16962;48.646;9.026;2022-11-14T09:17:33;5.93;;;3.47;;
30149;SDS011;16962;48.646;9.026;2022-11-14T09:20:21;4.93;;;3.63;;
30149;SDS011;16962;48.646;9.026;2022-11-14T09:23:17;5.30;;;3.53;;
30149;SDS011;16962;48.646;9.026;2022-11-14T09:26:08;6.30;;;4.10;;
30149;SDS011;16962;48.646;9.026;2022-11-14T09:28:55;6.32;;;3.60;;
30149;SDS011;16962;48.646;9.026;2022-11-14T09:31:43;5.45;;;3.63;;
30149;SDS011;16962;48.646;9.026;2022-11-14T09:34:31;7.47;;;3.70;;
30149;SDS011;16962;48.646;9.026;2022-11-14T09:37:21;5.00;;;3.63;;
30149;SDS011;16962;48.646;9.026;2022-11-14T09:40:11;4.97;;;3.67;;
30149;SDS011;16962;48.646;9.026;2022-11-14T09:46:22;5.25;;;3.42;;
30149;SDS011;16962;48.646;9.026;2022-11-14T09:49:10;5.40;;;3.17;;
30149;SDS011;16962;48.646;9.026;2022-11-14T09:52:13;5.90;;;3.97;;
30149;SDS011;16962;48.646;9.026;2022-11-14T09:55:10;4.68;;;3.03;;
30149;SDS011;16962;48.646;9.026;2022-11-14T09:58:08;3.78;;;2.88;;
30149;SDS011;16962;48.646;9.026;2022-11-14T10:01:02;3.80;;;2.65;;
30149;SDS011;16962;48.646;9.026;2022-11-14T10:07:22;3.70;;;2.97;;
30149;SDS011;16962;48.646;9.026;2022-11-14T10:13:40;3.30;;;2.20;;
30149;SDS011;16962;48.646;9.026;2022-11-14T10:26:26;3.33;;;2.22;;
30149;SDS011;16962;48.646;9.026;2022-11-14T10:35:44;3.15;;;1.98;;
30149;SDS011;16962;48.646;9.026;2022-11-14T10:38:50;2.20;;;1.67;;
30149;SDS011;16962;48.646;9.026;2022-11-14T10:41:50;3.45;;;2.15;;
30149;SDS011;16962;48.646;9.026;2022-11-14T10:44:50;3.25;;;2.10;;
30149;SDS011;16962;48.646;9.026;2022-11-14T10:47:48;2.03;;;1.83;;
30149;SDS011;16962;48.646;9.026;2022-11-14T10:56:47;1.92;;;1.83;;
30149;SDS011;16962;48.646;9.026;2022-11-14T11:02:24;2.00;;;1.77;;
30149;SDS011;16962;48.646;9.026;2022-11-14T11:05:13;1.95;;;1.70;;
30149;SDS011;16962;48.646;9.026;2022-11-14T11:08:07;3.80;;;2.10;;
30149;SDS011;16962;48.646;9.026;2022-11-14T11:11:29;1.65;;;1.55;;
30149;SDS011;16962;48.646;9.026;2022-11-14T11:14:17;1.65;;;1.55;;
30149;SDS011;16962;48.646;9.026;2022-11-14T11:20:20;2.13;;;1.77;;
30149;SDS011;16962;48.646;9.026;2022-11-14T11:23:26;2.67;;;1.80;;
30149;SDS011;16962;48.646;9.026;2022-11-14T11:26:18;1.80;;;1.60;;
30149;SDS011;16962;48.646;9.026;2022-11-14T11:31:57;6.03;;;1.92;;
30149;SDS011;16962;48.646;9.026;2022-11-14T11:34:48;5.55;;;2.50;;
30149;SDS011;16962;48.646;9.026;2022-11-14T11:37:48;2.08;;;1.77;;
30149;SDS011;16962;48.646;9.026;2022-11-14T11:40:43;2.35;;;1.40;;
30149;SDS011;16962;48.646;9.026;2022-11-14T11:43:55;1.90;;;1.50;;
30149;SDS011;16962;48.646;9.026;2022-11-14T11:46:56;2.38;;;1.65;;
30149;SDS011;16962;48.646;9.026;2022-11-14T11:49:50;2.17;;;1.77;;
30149;SDS011;16962;48.646;9.026;2022-11-14T11:55:41;2.10;;;1.90;;
30149;SDS011;16962;48.646;9.026;2022-11-14T12:01:29;10.80;;;2.20;;
30149;SDS011;16962;48.646;9.026;2022-11-14T12:04:17;4.70;;;2.17;;
30149;SDS011;16962;48.646;9.026;2022-11-14T12:07:17;4.38;;;1.75;;
30149;SDS011;16962;48.646;9.026;2022-11-14T12:10:13;3.17;;;1.98;;
30149;SDS011;16962;48.646;9.026;2022-11-14T12:13:25;2.40;;;1.92;;
30149;SDS011;16962;48.646;9.026;2022-11-14T12:16:21;3.70;;;1.80;;
30149;SDS011;16962;48.646;9.026;2022-11-14T12:22:46;3.30;;;2.33;;
30149;SDS011;16962;48.646;9.026;2022-11-14T12:25:56;3.45;;;1.90;;
30149;SDS011;16962;48.646;9.026;2022-11-14T12:32:12;2.28;;;2.00;;
30149;SDS011;16962;48.646;9.026;2022-11-14T12:35:18;1.73;;;1.55;;
30149;SDS011;16962;48.646;9.026;2022-11-14T12:38:18;2.53;;;1.67;;
30149;SDS011;16962;48.646;9.026;2022-11-14T12:41:07;3.63;;;1.88;;
30149;SDS011;16962;48.646;9.026;2022-11-14T12:44:17;2.03;;;1.40;;
30149;SDS011;16962;48.646;9.026;2022-11-14T12:47:19;2.20;;;1.55;;
30149;SDS011;16962;48.646;9.026;2022-11-14T12:50:41;1.85;;;1.40;;
30149;SDS011;16962;48.646;9.026;2022-11-14T12:59:15;4.38;;;1.73;;
30149;SDS011;16962;48.646;9.026;2022-11-14T13:05:42;4.68;;;1.63;;
30149;SDS011;16962;48.646;9.026;2022-11-14T13:12:32;3.10;;;1.70;;
30149;SDS011;16962;48.646;9.026;2022-11-14T13:15:49;2.75;;;1.83;;
30149;SDS011;16962;48.646;9.026;2022-11-14T13:22:32;7.43;;;1.98;;
30149;SDS011;16962;48.646;9.026;2022-11-14T13:25:25;2.63;;;1.80;;
30149;SDS011;16962;48.646;9.026;2022-11-14T13:52:54;5.63;;;2.00;;
30149;SDS011;16962;48.646;9.026;2022-11-14T14:14:49;16.77;;;2.83;;
30149;SDS011;16962;48.646;9.026;2022-11-14T14:30:12;4.55;;;2.83;;
30149;SDS011;16962;48.646;9.026;2022-11-14T14:33:11;6.00;;;2.97;;
30149;SDS011;16962;48.646;9.026;2022-11-14T14:36:14;14.57;;;4.97;;
30149;SDS011;16962;48.646;9.026;2022-11-14T14:39:17;4.53;;;2.53;;
30149;SDS011;16962;48.646;9.026;2022-11-14T14:42:15;4.18;;;2.83;;
30149;SDS011;16962;48.646;9.026;2022-11-14T14:45:04;7.63;;;3.38;;
30149;SDS011;16962;48.646;9.026;2022-11-14T14:50:50;7.45;;;3.40;;
30149;SDS011;16962;48.646;9.026;2022-11-14T14:53:51;8.73;;;3.92;;
30149;SDS011;16962;48.646;9.026;2022-11-14T14:56:39;7.43;;;3.00;;
30149;SDS011;16962;48.646;9.026;2022-11-14T14:59:45;8.65;;;3.40;;
30149;SDS011;16962;48.646;9.026;2022-11-14T15:02:43;6.10;;;3.08;;
30149;SDS011;16962;48.646;9.026;2022-11-14T15:05:35;6.97;;;3.17;;
30149;SDS011;16962;48.646;9.026;2022-11-14T15:08:24;4.82;;;2.90;;
30149;SDS011;16962;48.646;9.026;2022-11-14T15:11:30;9.57;;;3.05;;
30149;SDS011;16962;48.646;9.026;2022-11-14T15:14:20;6.93;;;3.38;;
30149;SDS011;16962;48.646;9.026;2022-11-14T15:17:13;14.98;;;4.88;;
30149;SDS011;16962;48.646;9.026;2022-11-14T15:20:04;9.30;;;3.35;;
30149;SDS011;16962;48.646;9.026;2022-11-14T15:26:03;5.35;;;2.90;;
30149;SDS011;16962;48.646;9.026;2022-11-14T15:29:06;7.57;;;3.08;;
30149;SDS011;16962;48.646;9.026;2022-11-14T15:32:15;4.25;;;2.80;;
30149;SDS011;16962;48.646;9.026;2022-11-14T15:35:06;5.82;;;3.47;;
30149;SDS011;16962;48.646;9.026;2022-11-14T15:41:20;8.52;;;3.78;;
30149;SDS011;16962;48.646;9.026;2022-11-14T15:44:29;5.57;;;3.42;;
30149;SDS011;16962;48.646;9.026;2022-11-14T15:55:53;4.97;;;3.10;;
30149;SDS011;16962;48.646;9.026;2022-11-14T15:58:41;9.75;;;3.38;;
30149;SDS011;16962;48.646;9.026;2022-11-14T16:01:34;9.20;;;3.45;;
30149;SDS011;16962;48.646;9.026;2022-11-14T16:04:23;6.00;;;3.22;;
30149;SDS011;16962;48.646;9.026;2022-11-14T16:07:17;8.05;;;3.47;;
30149;SDS011;16962;48.646;9.026;2022-11-14T16:10:15;8.60;;;3.97;;
30149;SDS011;16962;48.646;9.026;2022-11-14T16:13:06;13.35;;;3.50;;
30149;SDS011;16962;48.646;9.026;2022-11-14T16:15:54;6.97;;;3.22;;
30149;SDS011;16962;48.646;9.026;2022-11-14T16:18:43;6.88;;;3.53;;
30149;SDS011;16962;48.646;9.026;2022-11-14T16:21:35;6.85;;;3.45;;
30149;SDS011;16962;48.646;9.026;2022-11-14T16:24:23;6.90;;;3.15;;
30149;SDS011;16962;48.646;9.026;2022-11-14T16:27:15;5.50;;;3.25;;
30149;SDS011;16962;48.646;9.026;2022-11-14T16:30:03;6.30;;;3.20;;
30149;SDS011;16962;48.646;9.026;2022-11-14T16:32:51;7.25;;;3.83;;
30149;SDS011;16962;48.646;9.026;2022-11-14T16:35:42;6.38;;;3.67;;
30149;SDS011;16962;48.646;9.026;2022-11-14T16:38:29;19.50;;;5.10;;
30149;SDS011;16962;48.646;9.026;2022-11-14T16:41:17;10.52;;;5.30;;
30149;SDS011;16962;48.646;9.026;2022-11-14T16:44:05;8.15;;;5.15;;
30149;SDS011;16962;48.646;9.026;2022-11-14T16:47:00;11.32;;;4.43;;
30149;SDS011;16962;48.646;9.026;2022-11-14T16:49:47;7.07;;;4.25;;
30149;SDS011;16962;48.646;9.026;2022-11-14T16:52:36;8.52;;;4.00;;
30149;SDS011;16962;48.646;9.026;2022-11-14T16:55:27;9.45;;;4.38;;
30149;SDS011;16962;48.646;9.026;2022-11-14T16:58:14;10.25;;;4.85;;
30149;SDS011;16962;48.646;9.026;2022-11-14T17:01:04;5.82;;;3.88;;
30149;SDS011;16962;48.646;9.026;2022-11-14T17:03:59;7.72;;;4.88;;
30149;SDS011;16962;48.646;9.026;2022-11-14T17:06:47;6.10;;;4.32;;
30149;SDS011;16962;48.646;9.026;2022-11-14T17:09:34;8.07;;;5.03;;
30149;SDS011;16962;48.646;9.026;2022-11-14T17:12:22;7.63;;;4.38;;
30149;SDS011;16962;48.646;9.026;2022-11-14T17:15:12;9.32;;;4.60;;
30149;SDS011;16962;48.646;9.026;2022-11-14T17:17:59;6.97;;;4.93;;
30149;SDS011;16962;48.646;9.026;2022-11-14T17:20:46;9.48;;;5.22;;
30149;SDS011;16962;48.646;9.026;2022-11-14T17:23:33;18.63;;;11.27;;
30149;SDS011;16962;48.646;9.026;2022-11-14T17:26:21;10.07;;;5.78;;
30149;SDS011;16962;48.646;9.026;2022-11-14T17:29:11;9.43;;;6.22;;
30149;SDS011;16962;48.646;9.026;2022-11-14T17:31:59;8.02;;;5.47;;
30149;SDS011;16962;48.646;9.026;2022-11-14T17:34:46;10.23;;;5.43;;
30149;SDS011;16962;48.646;9.026;2022-11-14T17:37:34;9.10;;;5.55;;
30149;SDS011;16962;48.646;9.026;2022-11-14T17:40:21;9.63;;;4.60;;
30149;SDS011;16962;48.646;9.026;2022-11-14T17:43:14;10.02;;;6.13;;
30149;SDS011;16962;48.646;9.026;2022-11-14T17:46:05;10.77;;;5.53;;
30149;SDS011;16962;48.646;9.026;2022-11-14T17:48:59;12.15;;;6.47;;
30149;SDS011;16962;48.646;9.026;2022-11-14T17:51:47;12.63;;;5.80;;
30149;SDS011;16962;48.646;9.026;2022-11-14T17:54:36;9.05;;;6.93;;
30149;SDS011;16962;48.646;9.026;2022-11-14T17:57:29;11.38;;;7.05;;
30149;SDS011;16962;48.646;9.026;2022-11-14T18:00:18;11.45;;;6.60;;
30149;SDS011;16962;48.646;9.026;2022-11-14T18:03:13;12.40;;;5.57;;
30149;SDS011;16962;48.646;9.026;2022-11-14T18:09:24;12.13;;;5.35;;
30149;SDS011;16962;48.646;9.026;2022-11-14T18:12:18;8.32;;;4.95;;
30149;SDS011;16962;48.646;9.026;2022-11-14T18:15:06;9.95;;;4.93;;
30149;SDS011;16962;48.646;9.026;2022-11-14T18:17:54;6.07;;;4.50;;
30149;SDS011;16962;48.646;9.026;2022-11-14T18:20:42;6.18;;;4.78;;
30149;SDS011;16962;48.646;9.026;2022-11-14T18:23:29;8.93;;;5.55;;
30149;SDS011;16962;48.646;9.026;2022-11-14T18:26:17;11.00;;;4.97;;
30149;SDS011;16962;48.646;9.026;2022-11-14T18:29:22;10.18;;;4.97;;
30149;SDS011;16962;48.646;9.026;2022-11-14T18:32:20;10.07;;;5.13;;
30149;SDS011;16962;48.646;9.026;2022-11-14T18:35:10;8.32;;;4.65;;
30149;SDS011;16962;48.646;9.026;2022-11-14T18:37:58;9.30;;;4.07;;
30149;SDS011;16962;48.646;9.026;2022-11-14T18:40:45;7.72;;;3.80;;
30149;SDS011;16962;48.646;9.026;2022-11-14T18:43:32;5.15;;;3.47;;
30149;SDS011;16962;48.646;9.026;2022-11-14T18:46:21;9.13;;;4.28;;
30149;SDS011;16962;48.646;9.026;2022-11-14T18:49:10;8.75;;;4.78;;
30149;SDS011;16962;48.646;9.026;2022-11-14T18:51:58;5.75;;;3.75;;
30149;SDS011;16962;48.646;9.026;2022-11-14T18:54:55;8.38;;;4.40;;
30149;SDS011;16962;48.646;9.026;2022-11-14T18:57:48;8.63;;;5.55;;
30149;SDS011;16962;48.646;9.026;2022-11-14T19:00:38;7.47;;;4.30;;
30149;SDS011;16962;48.646;9.026;2022-11-14T19:03:25;8.20;;;4.43;;
30149;SDS011;16962;48.646;9.026;2022-11-14T19:06:15;8.07;;;5.35;;
30149;SDS011;16962;48.646;9.026;2022-11-14T19:11:56;6.95;;;4.70;;
30149;SDS011;16962;48.646;9.026;2022-11-14T19:15:05;9.15;;;4.78;;
30149;SDS011;16962;48.646;9.026;2022-11-14T19:17:56;7.07;;;4.78;;
30149;SDS011;16962;48.646;9.026;2022-11-14T19:20:59;10.27;;;4.55;;
30149;SDS011;16962;48.646;9.026;2022-11-14T19:23:50;8.15;;;3.67;;
30149;SDS011;16962;48.646;9.026;2022-11-14T19:26:51;6.25;;;4.05;;
30149;SDS011;16962;48.646;9.026;2022-11-14T19:29:46;5.40;;;3.65;;
30149;SDS011;16962;48.646;9.026;2022-11-14T19:32:37;7.60;;;3.90;;
30149;SDS011;16962;48.646;9.026;2022-11-14T19:35:25;7.82;;;4.43;;